createdAt,value
2018-08-17T00:00:50.495Z,26.01
2018-08-17T00:02:00.033Z,25.95
2018-08-17T00:03:09.390Z,26.01
2018-08-17T00:04:18.723Z,26.02
2018-08-17T00:05:28.510Z,25.98
2018-08-17T00:06:38.168Z,26.02
2018-08-17T00:07:47.359Z,25.99
2018-08-17T00:08:57.305Z,26.02
2018-08-17T00:10:06.381Z,25.94
2018-08-17T00:11:15.461Z,26.07
2018-08-17T00:12:24.938Z,26.01
2018-08-17T00:13:34.797Z,25.94
2018-08-17T00:14:44.344Z,25.99
2018-08-17T00:15:53.902Z,25.98
2018-08-17T00:17:03.230Z,26.09
2018-08-17T00:18:13.018Z,26.12
2018-08-17T00:19:22.297Z,26.07
2018-08-17T00:20:31.139Z,26.01
2018-08-17T00:21:40.808Z,25.99
2018-08-17T00:22:50.443Z,26.01
2018-08-17T00:23:59.504Z,25.98
2018-08-17T00:25:08.889Z,26.06
2018-08-17T00:26:18.543Z,25.94
2018-08-17T00:27:27.929Z,26.07
2018-08-17T00:28:37.285Z,25.97
2018-08-17T00:29:46.424Z,26.01
2018-08-17T00:30:55.719Z,25.97
2018-08-17T00:32:05.073Z,25.98
2018-08-17T00:33:15.014Z,26.01
2018-08-17T00:34:24.145Z,25.99
2018-08-17T00:35:33.764Z,25.95
2018-08-17T00:36:43.374Z,26.05
2018-08-17T00:37:52.216Z,26.05
2018-08-17T00:39:01.037Z,26.07
2018-08-17T00:40:10.580Z,25.94
2018-08-17T00:41:19.898Z,25.95
2018-08-17T00:42:29.345Z,26.02
2018-08-17T00:43:38.801Z,25.95
2018-08-17T00:44:48.165Z,26.09
2018-08-17T00:45:57.738Z,25.97
2018-08-17T00:47:07.230Z,26.02
2018-08-17T00:48:17.134Z,25.91
2018-08-17T00:49:26.674Z,26.02
2018-08-17T00:50:35.412Z,25.98
2018-08-17T00:51:44.789Z,25.95
2018-08-17T00:52:54.055Z,26.01
2018-08-17T00:54:02.802Z,25.95
2018-08-17T00:55:11.540Z,26.01
2018-08-17T00:56:21.057Z,25.95
2018-08-17T00:57:30.507Z,26.01
2018-08-17T00:58:40.027Z,25.94
2018-08-17T00:59:49.630Z,26.01
2018-08-17T01:00:59.842Z,26.09
2018-08-17T01:02:09.179Z,25.92
2018-08-17T01:03:19.009Z,26.02
2018-08-17T01:04:28.398Z,25.98
2018-08-17T01:05:37.340Z,25.94
2018-08-17T01:06:46.951Z,25.92
2018-08-17T01:07:56.277Z,25.92
2018-08-17T01:09:05.670Z,25.92
2018-08-17T01:10:15.045Z,25.88
2018-08-17T01:11:24.120Z,25.92
2018-08-17T01:12:32.994Z,25.97
2018-08-17T01:13:42.859Z,25.98
2018-08-17T01:14:52.101Z,25.97
2018-08-17T01:16:01.138Z,25.97
2018-08-17T01:17:10.605Z,25.92
2018-08-17T01:18:19.962Z,25.91
2018-08-17T01:19:29.328Z,25.95
2018-08-17T01:20:38.436Z,25.94
2018-08-17T01:21:47.912Z,25.97
2018-08-17T01:22:57.464Z,25.95
2018-08-17T01:24:06.449Z,25.97
2018-08-17T01:25:15.699Z,25.91
2018-08-17T01:26:24.999Z,25.95
2018-08-17T01:27:34.296Z,25.99
2018-08-17T01:28:43.834Z,25.92
2018-08-17T01:29:52.870Z,25.95
2018-08-17T01:31:02.477Z,25.99
2018-08-17T01:32:12.003Z,25.95
2018-08-17T01:33:21.348Z,25.95
2018-08-17T01:34:30.364Z,25.97
2018-08-17T01:35:40.008Z,25.97
2018-08-17T01:36:49.127Z,25.94
2018-08-17T01:37:58.884Z,25.97
2018-08-17T01:39:08.218Z,25.97
2018-08-17T01:40:17.536Z,25.91
2018-08-17T01:41:26.796Z,25.97
2018-08-17T01:42:36.065Z,25.94
2018-08-17T01:43:45.313Z,25.91
2018-08-17T01:44:54.567Z,25.91
2018-08-17T01:46:04.369Z,25.94
2018-08-17T01:47:14.311Z,25.9
2018-08-17T01:48:23.270Z,25.91
2018-08-17T01:49:32.528Z,25.91
2018-08-17T01:50:42.013Z,25.91
2018-08-17T01:51:51.581Z,25.94
2018-08-17T01:53:01.368Z,25.91
2018-08-17T01:54:10.671Z,25.88
2018-08-17T01:55:19.910Z,25.87
2018-08-17T01:56:29.742Z,25.91
2018-08-17T01:57:39.428Z,25.88
2018-08-17T01:58:48.178Z,25.94
2018-08-17T01:59:57.705Z,25.87
2018-08-17T02:01:06.987Z,25.87
2018-08-17T02:02:16.444Z,25.92
2018-08-17T02:03:25.715Z,25.91
2018-08-17T02:04:35.062Z,25.85
2018-08-17T02:05:44.643Z,25.91
2018-08-17T02:06:53.907Z,25.83
2018-08-17T02:08:03.149Z,25.87
2018-08-17T02:09:12.392Z,25.91
2018-08-17T02:10:21.437Z,25.87
2018-08-17T02:11:30.652Z,25.9
2018-08-17T02:12:39.889Z,25.8
2018-08-17T02:13:49.391Z,25.8
2018-08-17T02:14:58.606Z,25.83
2018-08-17T02:16:07.963Z,25.82
2018-08-17T02:17:17.978Z,25.75
2018-08-17T02:18:27.899Z,25.73
2018-08-17T02:19:37.396Z,25.75
2018-08-17T02:20:46.903Z,25.87
2018-08-17T02:21:56.436Z,25.75
2018-08-17T02:23:05.752Z,25.76
2018-08-17T02:24:14.751Z,25.75
2018-08-17T02:25:24.303Z,25.76
2018-08-17T02:26:33.565Z,25.75
2018-08-17T02:27:42.593Z,25.75
2018-08-17T02:28:51.649Z,25.76
2018-08-17T02:30:00.891Z,25.72
2018-08-17T02:31:09.879Z,25.72
2018-08-17T02:32:19.514Z,25.73
2018-08-17T02:33:28.799Z,25.69
2018-08-17T02:34:37.635Z,25.72
2018-08-17T02:35:46.878Z,25.67
2018-08-17T02:36:56.296Z,25.76
2018-08-17T02:38:06.114Z,25.69
2018-08-17T02:39:15.128Z,25.67
2018-08-17T02:40:24.626Z,25.67
2018-08-17T02:41:33.986Z,25.64
2018-08-17T02:42:43.527Z,25.62
2018-08-17T02:43:53.077Z,25.67
2018-08-17T02:45:02.703Z,25.64
2018-08-17T02:46:11.744Z,25.64
2018-08-17T02:47:21.500Z,25.69
2018-08-17T02:48:30.627Z,25.69
2018-08-17T02:49:40.549Z,25.61
2018-08-17T02:50:49.667Z,25.65
2018-08-17T02:51:59.561Z,25.6
2018-08-17T02:53:08.968Z,25.69
2018-08-17T02:54:18.112Z,25.62
2018-08-17T02:55:27.594Z,25.61
2018-08-17T02:56:37.084Z,25.6
2018-08-17T02:57:46.454Z,25.57
2018-08-17T02:58:55.826Z,25.57
2018-08-17T03:00:05.399Z,25.6
2018-08-17T03:01:15.088Z,25.62
2018-08-17T03:02:24.871Z,25.54
2018-08-17T03:03:34.250Z,25.54
2018-08-17T03:04:43.669Z,25.64
2018-08-17T03:05:53.515Z,25.61
2018-08-17T03:07:02.794Z,25.64
2018-08-17T03:08:11.806Z,25.61
2018-08-17T03:09:21.153Z,25.52
2018-08-17T03:10:30.814Z,25.58
2018-08-17T03:11:40.498Z,25.52
2018-08-17T03:12:50.588Z,25.55
2018-08-17T03:14:00.431Z,25.46
2018-08-17T03:15:10.083Z,25.57
2018-08-17T03:16:19.414Z,25.58
2018-08-17T03:17:29.355Z,25.51
2018-08-17T03:18:38.430Z,25.5
2018-08-17T03:19:47.508Z,25.61
2018-08-17T03:20:56.940Z,25.51
2018-08-17T03:22:06.515Z,25.58
2018-08-17T03:23:15.892Z,25.51
2018-08-17T03:24:25.813Z,25.51
2018-08-17T03:25:35.424Z,25.52
2018-08-17T03:26:45.232Z,25.5
2018-08-17T03:27:54.680Z,25.61
2018-08-17T03:29:03.698Z,25.45
2018-08-17T03:30:12.960Z,25.54
2018-08-17T03:31:22.829Z,25.47
2018-08-17T03:32:32.127Z,25.46
2018-08-17T03:33:41.202Z,25.5
2018-08-17T03:34:51.140Z,25.47
2018-08-17T03:36:00.228Z,25.46
2018-08-17T03:37:09.794Z,25.5
2018-08-17T03:38:19.219Z,25.43
2018-08-17T03:39:28.326Z,25.4
2018-08-17T03:40:37.638Z,25.47
2018-08-17T03:41:47.500Z,25.39
2018-08-17T03:42:57.079Z,25.36
2018-08-17T03:44:06.392Z,25.36
2018-08-17T03:45:15.230Z,25.36
2018-08-17T03:46:24.561Z,25.38
2018-08-17T03:47:33.735Z,25.36
2018-08-17T03:48:43.029Z,25.42
2018-08-17T03:49:52.115Z,25.38
2018-08-17T03:51:01.428Z,25.3
2018-08-17T03:52:10.708Z,25.32
2018-08-17T03:53:19.717Z,25.35
2018-08-17T03:54:29.054Z,25.3
2018-08-17T03:55:37.946Z,25.33
2018-08-17T03:56:47.049Z,25.35
2018-08-17T03:57:56.125Z,25.36
2018-08-17T03:59:05.672Z,25.38
2018-08-17T04:00:15.337Z,25.33
2018-08-17T04:01:24.726Z,25.36
2018-08-17T04:02:34.255Z,25.35
2018-08-17T04:03:43.306Z,25.3
2018-08-17T04:04:53.233Z,25.36
2018-08-17T04:06:02.458Z,25.38
2018-08-17T04:07:12.080Z,25.33
2018-08-17T04:08:21.184Z,25.35
2018-08-17T04:09:30.655Z,25.35
2018-08-17T04:10:40.251Z,25.32
2018-08-17T04:11:49.597Z,25.36
2018-08-17T04:12:59.522Z,25.36
2018-08-17T04:14:08.804Z,25.35
2018-08-17T04:15:18.011Z,25.35
2018-08-17T04:16:27.354Z,25.3
2018-08-17T04:17:36.724Z,25.3
2018-08-17T04:18:46.267Z,25.38
2018-08-17T04:19:55.831Z,25.28
2018-08-17T04:21:04.885Z,25.39
2018-08-17T04:22:14.246Z,25.28
2018-08-17T04:23:23.077Z,25.4
2018-08-17T04:24:32.135Z,25.42
2018-08-17T04:25:41.753Z,25.4
2018-08-17T04:26:51.429Z,25.32
2018-08-17T04:28:01.016Z,25.32
2018-08-17T04:29:10.370Z,25.33
2018-08-17T04:30:20.058Z,25.33
2018-08-17T04:31:29.688Z,25.3
2018-08-17T04:32:38.857Z,25.3
2018-08-17T04:33:48.215Z,25.32
2018-08-17T04:34:57.457Z,25.36
2018-08-17T04:36:06.591Z,25.3
2018-08-17T04:37:15.935Z,25.25
2018-08-17T04:38:24.999Z,25.3
2018-08-17T04:39:34.368Z,25.33
2018-08-17T04:40:43.704Z,25.27
2018-08-17T04:41:52.680Z,25.33
2018-08-17T04:43:01.533Z,25.38
2018-08-17T04:44:10.982Z,25.32
2018-08-17T04:45:20.257Z,25.33
2018-08-17T04:46:30.090Z,25.27
2018-08-17T04:47:39.128Z,25.28
2018-08-17T04:48:48.869Z,25.25
2018-08-17T04:49:57.637Z,25.27
2018-08-17T04:51:07.169Z,25.28
2018-08-17T04:52:16.694Z,25.28
2018-08-17T04:53:25.463Z,25.23
2018-08-17T04:54:34.757Z,25.23
2018-08-17T04:55:43.537Z,25.17
2018-08-17T04:56:53.103Z,25.25
2018-08-17T04:58:02.133Z,25.23
2018-08-17T04:59:11.885Z,25.24
2018-08-17T05:00:22.014Z,25.27
2018-08-17T05:01:31.882Z,25.28
2018-08-17T05:02:41.186Z,25.32
2018-08-17T05:03:50.456Z,25.36
2018-08-17T05:05:00.178Z,25.36
2018-08-17T05:06:09.683Z,25.45
2018-08-17T05:07:18.940Z,25.36
2018-08-17T05:08:27.940Z,25.4
2018-08-17T05:09:37.321Z,25.4
2018-08-17T05:10:46.848Z,25.38
2018-08-17T05:11:55.865Z,25.45
2018-08-17T05:13:04.866Z,25.46
2018-08-17T05:14:14.506Z,25.5
2018-08-17T05:15:24.139Z,25.5
2018-08-17T05:16:33.728Z,25.54
2018-08-17T05:17:43.051Z,25.55
2018-08-17T05:18:52.576Z,25.52
2018-08-17T05:20:01.359Z,25.47
2018-08-17T05:21:10.621Z,25.51
2018-08-17T05:22:20.236Z,25.51
2018-08-17T05:23:29.328Z,25.55
2018-08-17T05:24:38.589Z,25.51
2018-08-17T05:25:47.978Z,25.47
2018-08-17T05:26:57.306Z,25.61
2018-08-17T05:28:07.112Z,25.57
2018-08-17T05:29:16.949Z,25.58
2018-08-17T05:30:26.758Z,25.57
2018-08-17T05:31:36.117Z,25.61
2018-08-17T05:32:46.171Z,25.54
2018-08-17T05:33:55.981Z,25.52
2018-08-17T05:35:05.564Z,25.61
2018-08-17T05:36:15.372Z,25.57
2018-08-17T05:37:24.706Z,25.61
2018-08-17T05:38:33.960Z,25.55
2018-08-17T05:39:43.033Z,25.52
2018-08-17T05:40:52.596Z,25.65
2018-08-17T05:42:01.648Z,25.54
2018-08-17T05:43:11.855Z,25.61
2018-08-17T05:44:21.155Z,25.58
2018-08-17T05:45:30.530Z,25.64
2018-08-17T05:46:39.822Z,25.67
2018-08-17T05:47:48.881Z,25.64
2018-08-17T05:48:57.971Z,25.62
2018-08-17T05:50:07.318Z,25.61
2018-08-17T05:51:17.384Z,25.62
2018-08-17T05:52:26.704Z,25.64
2018-08-17T05:53:35.824Z,25.62
2018-08-17T05:54:45.186Z,25.65
2018-08-17T05:55:54.048Z,25.67
2018-08-17T05:57:03.084Z,25.67
2018-08-17T05:58:12.413Z,25.61
2018-08-17T05:59:21.688Z,25.61
2018-08-17T06:00:31.312Z,25.67
2018-08-17T06:01:40.903Z,25.62
2018-08-17T06:02:49.913Z,25.61
2018-08-17T06:04:00.021Z,25.64
2018-08-17T06:05:09.331Z,25.69
2018-08-17T06:06:18.875Z,25.73
2018-08-17T06:07:28.096Z,25.62
2018-08-17T06:08:37.202Z,25.65
2018-08-17T06:09:46.276Z,25.64
2018-08-17T06:10:56.006Z,25.69
2018-08-17T06:12:05.853Z,25.72
2018-08-17T06:13:15.231Z,25.72
2018-08-17T06:14:24.813Z,25.72
2018-08-17T06:15:34.099Z,25.7
2018-08-17T06:16:43.459Z,25.69
2018-08-17T06:17:52.558Z,25.72
2018-08-17T06:19:01.881Z,25.65
2018-08-17T06:20:11.159Z,25.73
2018-08-17T06:21:20.803Z,25.77
2018-08-17T06:22:29.840Z,25.69
2018-08-17T06:23:39.415Z,25.8
2018-08-17T06:24:48.423Z,25.7
2018-08-17T06:25:57.811Z,25.67
2018-08-17T06:27:07.394Z,25.72
2018-08-17T06:28:16.773Z,25.79
2018-08-17T06:29:26.595Z,25.69
2018-08-17T06:30:36.174Z,25.77
2018-08-17T06:31:45.901Z,25.77
2018-08-17T06:32:54.931Z,25.76
2018-08-17T06:34:04.350Z,25.75
2018-08-17T06:35:14.245Z,25.7
2018-08-17T06:36:23.962Z,25.73
2018-08-17T06:37:32.971Z,25.76
2018-08-17T06:38:42.343Z,25.76
2018-08-17T06:39:51.713Z,25.82
2018-08-17T06:41:00.462Z,25.73
2018-08-17T06:42:09.608Z,25.79
2018-08-17T06:43:19.220Z,25.79
2018-08-17T06:44:29.111Z,25.85
2018-08-17T06:45:38.228Z,25.79
2018-08-17T06:46:47.773Z,25.77
2018-08-17T06:47:56.575Z,25.73
2018-08-17T06:49:06.016Z,25.77
2018-08-17T06:50:15.111Z,25.82
2018-08-17T06:51:24.642Z,25.8
2018-08-17T06:52:33.709Z,25.79
2018-08-17T06:53:42.904Z,25.82
2018-08-17T06:54:52.009Z,25.79
2018-08-17T06:56:01.518Z,25.8
2018-08-17T06:57:11.134Z,25.87
2018-08-17T06:58:20.256Z,25.79
2018-08-17T06:59:29.803Z,25.85
2018-08-17T07:00:38.697Z,25.77
2018-08-17T07:01:48.076Z,25.8
2018-08-17T07:02:57.398Z,25.85
2018-08-17T07:04:06.802Z,25.82
2018-08-17T07:05:16.415Z,25.8
2018-08-17T07:06:26.331Z,25.9
2018-08-17T07:07:35.260Z,25.82
2018-08-17T07:08:44.733Z,25.9
2018-08-17T07:09:54.315Z,25.9
2018-08-17T07:11:03.427Z,25.87
2018-08-17T07:12:12.784Z,25.9
2018-08-17T07:13:22.013Z,25.83
2018-08-17T07:14:31.186Z,25.82
2018-08-17T07:15:40.583Z,25.82
2018-08-17T07:16:50.110Z,25.83
2018-08-17T07:17:59.750Z,25.82
2018-08-17T07:19:09.317Z,25.8
2018-08-17T07:20:18.651Z,25.83
2018-08-17T07:21:27.946Z,25.85
2018-08-17T07:22:37.843Z,25.79
2018-08-17T07:23:47.666Z,25.85
2018-08-17T07:24:57.091Z,25.82
2018-08-17T07:26:06.219Z,25.83
2018-08-17T07:27:15.777Z,25.92
2018-08-17T07:28:24.944Z,25.82
2018-08-17T07:29:35.004Z,25.85
2018-08-17T07:30:44.107Z,25.92
2018-08-17T07:31:54.018Z,25.9
2018-08-17T07:33:03.469Z,25.88
2018-08-17T07:34:12.603Z,25.9
2018-08-17T07:35:22.129Z,25.91
2018-08-17T07:36:30.891Z,25.88
2018-08-17T07:37:39.981Z,25.92
2018-08-17T07:38:49.521Z,25.9
2018-08-17T07:39:59.050Z,25.91
2018-08-17T07:41:08.105Z,25.85
2018-08-17T07:42:17.660Z,25.9
2018-08-17T07:43:27.234Z,25.94
2018-08-17T07:44:37.007Z,25.92
2018-08-17T07:45:46.588Z,25.9
2018-08-17T07:46:55.746Z,25.9
2018-08-17T07:48:04.956Z,25.9
2018-08-17T07:49:14.334Z,25.94
2018-08-17T07:50:23.597Z,25.87
2018-08-17T07:51:33.527Z,25.88
2018-08-17T07:52:42.880Z,25.92
2018-08-17T07:53:52.526Z,25.9
2018-08-17T07:55:01.273Z,25.9
2018-08-17T07:56:11.150Z,25.97
2018-08-17T07:57:20.773Z,25.9
2018-08-17T07:58:30.103Z,25.88
2018-08-17T07:59:39.221Z,25.9
2018-08-17T08:00:48.534Z,25.92
2018-08-17T08:01:57.531Z,25.94
2018-08-17T08:03:06.788Z,25.95
2018-08-17T08:04:16.141Z,25.88
2018-08-17T08:05:25.946Z,25.92
2018-08-17T08:06:35.503Z,25.91
2018-08-17T08:07:44.899Z,25.94
2018-08-17T08:08:54.082Z,25.91
2018-08-17T08:10:03.721Z,25.97
2018-08-17T08:11:13.671Z,25.94
2018-08-17T08:12:23.765Z,25.91
2018-08-17T08:13:33.365Z,25.94
2018-08-17T08:14:43.653Z,25.94
2018-08-17T08:15:53.233Z,25.94
2018-08-17T08:17:02.340Z,25.99
2018-08-17T08:18:11.900Z,25.92
2018-08-17T08:19:21.694Z,25.94
2018-08-17T08:20:31.352Z,25.95
2018-08-17T08:21:40.860Z,25.97
2018-08-17T08:22:49.919Z,25.92
2018-08-17T08:23:58.947Z,25.97
2018-08-17T08:25:08.494Z,25.98
2018-08-17T08:26:18.329Z,25.97
2018-08-17T08:27:28.483Z,25.95
2018-08-17T08:28:38.316Z,25.95
2018-08-17T08:29:47.092Z,25.97
2018-08-17T08:30:56.357Z,25.97
2018-08-17T08:32:05.917Z,25.94
2018-08-17T08:33:15.285Z,25.94
2018-08-17T08:34:25.219Z,25.95
2018-08-17T08:35:34.512Z,25.95
2018-08-17T08:36:43.622Z,25.95
2018-08-17T08:37:53.668Z,25.97
2018-08-17T08:39:03.538Z,25.97
2018-08-17T08:40:13.069Z,25.95
2018-08-17T08:41:22.110Z,25.92
2018-08-17T08:42:31.296Z,25.98
2018-08-17T08:43:41.021Z,25.95
2018-08-17T08:44:50.077Z,25.99
2018-08-17T08:45:59.992Z,25.97
2018-08-17T08:47:09.649Z,25.92
2018-08-17T08:48:19.222Z,25.92
2018-08-17T08:49:29.120Z,25.91
2018-08-17T08:50:39.267Z,25.98
2018-08-17T08:51:48.527Z,25.94
2018-08-17T08:52:57.816Z,25.97
2018-08-17T08:54:07.467Z,25.92
2018-08-17T08:55:17.333Z,25.94
2018-08-17T08:56:26.385Z,25.94
2018-08-17T08:57:36.029Z,25.95
2018-08-17T08:58:45.256Z,25.94
2018-08-17T08:59:54.546Z,25.92
2018-08-17T09:01:03.332Z,25.98
2018-08-17T09:02:12.427Z,25.98
2018-08-17T09:03:21.720Z,25.95
2018-08-17T09:04:31.354Z,25.95
2018-08-17T09:05:40.882Z,25.92
2018-08-17T09:06:50.428Z,25.98
2018-08-17T09:07:59.439Z,25.95
2018-08-17T09:09:09.032Z,25.97
2018-08-17T09:10:18.476Z,25.95
2018-08-17T09:11:27.509Z,26.01
2018-08-17T09:12:36.624Z,26.02
2018-08-17T09:13:46.404Z,25.94
2018-08-17T09:14:56.465Z,25.91
2018-08-17T09:16:05.592Z,26.02
2018-08-17T09:17:15.280Z,25.94
2018-08-17T09:18:24.845Z,26.02
2018-08-17T09:19:34.182Z,25.98
2018-08-17T09:20:44.107Z,25.99
2018-08-17T09:21:53.637Z,25.98
2018-08-17T09:23:03.574Z,26.05
2018-08-17T09:24:12.593Z,26.02
2018-08-17T09:25:22.122Z,25.98
2018-08-17T09:26:31.659Z,25.99
2018-08-17T09:27:41.216Z,25.99
2018-08-17T09:28:49.969Z,25.98
2018-08-17T09:29:59.382Z,25.92
2018-08-17T09:31:09.041Z,26.07
2018-08-17T09:32:18.442Z,26.02
2018-08-17T09:33:27.952Z,25.99
2018-08-17T09:34:36.986Z,25.94
2018-08-17T09:35:46.546Z,25.97
2018-08-17T09:36:56.345Z,25.97
2018-08-17T09:38:05.901Z,25.98
2018-08-17T09:39:14.951Z,26.06
2018-08-17T09:40:24.214Z,26.01
2018-08-17T09:41:33.726Z,25.94
2018-08-17T09:42:43.474Z,26.01
2018-08-17T09:43:52.754Z,25.92
2018-08-17T09:45:02.071Z,25.94
2018-08-17T09:46:11.350Z,26.05
2018-08-17T09:47:20.697Z,26.1
2018-08-17T09:48:30.480Z,25.98
2018-08-17T09:49:39.782Z,26.02
2018-08-17T09:50:48.966Z,26.01
2018-08-17T09:51:58.490Z,25.95
2018-08-17T09:53:08.247Z,25.99
2018-08-17T09:54:17.819Z,25.97
2018-08-17T09:55:27.626Z,25.99
2018-08-17T09:56:37.192Z,25.99
2018-08-17T09:57:46.858Z,25.99
2018-08-17T09:58:56.711Z,25.99
2018-08-17T10:00:06.017Z,25.99
2018-08-17T10:01:15.054Z,26.06
2018-08-17T10:02:24.570Z,26.01
2018-08-17T10:03:34.093Z,26.05
2018-08-17T10:04:43.404Z,25.98
2018-08-17T10:05:53.209Z,25.99
2018-08-17T10:07:02.786Z,25.99
2018-08-17T10:08:12.377Z,26.02
2018-08-17T10:09:21.715Z,26.07
2018-08-17T10:10:30.768Z,26.06
2018-08-17T10:11:40.556Z,26.01
2018-08-17T10:12:50.055Z,25.98
2018-08-17T10:13:59.789Z,25.98
2018-08-17T10:15:09.568Z,25.98
2018-08-17T10:16:19.072Z,26.02
2018-08-17T10:17:28.875Z,25.95
2018-08-17T10:18:38.264Z,26.06
2018-08-17T10:19:47.768Z,25.99
2018-08-17T10:20:58.300Z,25.97
2018-08-17T10:22:10.010Z,25.95
2018-08-17T10:23:19.891Z,25.98
2018-08-17T10:24:29.148Z,26.09
2018-08-17T10:25:38.699Z,26.07
2018-08-17T10:26:47.966Z,26.01
2018-08-17T10:27:57.921Z,25.97
2018-08-17T10:29:07.207Z,25.97
2018-08-17T10:30:16.726Z,26.01
2018-08-17T10:31:26.262Z,25.97
2018-08-17T10:32:36.514Z,25.95
2018-08-17T10:33:45.524Z,26.01
2018-08-17T10:34:55.057Z,25.98
2018-08-17T10:36:04.423Z,25.92
2018-08-17T10:37:13.934Z,25.98
2018-08-17T10:38:23.461Z,25.98
2018-08-17T10:39:32.843Z,25.98
2018-08-17T10:40:42.539Z,25.97
2018-08-17T10:41:52.581Z,25.97
2018-08-17T10:43:01.451Z,25.98
2018-08-17T10:44:10.764Z,26.17
2018-08-17T10:45:20.044Z,25.98
2018-08-17T10:46:29.132Z,26.06
2018-08-17T10:47:38.197Z,25.94
2018-08-17T10:48:47.790Z,25.99
2018-08-17T10:49:58.189Z,25.99
2018-08-17T10:51:07.179Z,25.98
2018-08-17T10:52:16.679Z,25.99
2018-08-17T10:53:25.379Z,25.97
2018-08-17T10:54:34.697Z,25.92
2018-08-17T10:55:44.607Z,26.02
2018-08-17T10:56:53.921Z,26.01
2018-08-17T10:58:03.621Z,26.06
2018-08-17T10:59:13.200Z,26.06
2018-08-17T11:00:22.209Z,26.05
2018-08-17T11:01:31.257Z,25.99
2018-08-17T11:02:40.486Z,25.97
2018-08-17T11:03:50.092Z,25.95
2018-08-17T11:04:59.513Z,25.99
2018-08-17T11:06:09.123Z,26.01
2018-08-17T11:07:18.184Z,25.98
2018-08-17T11:08:26.927Z,25.98
2018-08-17T11:09:35.981Z,26.06
2018-08-17T11:10:45.021Z,25.98
2018-08-17T11:11:54.572Z,26.06
2018-08-17T11:13:04.323Z,26.01
2018-08-17T11:14:14.068Z,26.12
2018-08-17T11:15:23.650Z,26.1
2018-08-17T11:16:33.208Z,25.99
2018-08-17T11:17:42.635Z,26.12
2018-08-17T11:18:52.398Z,25.97
2018-08-17T11:20:01.651Z,25.99
2018-08-17T11:21:10.931Z,26.05
2018-08-17T11:22:20.259Z,25.97
2018-08-17T11:23:29.540Z,26.02
2018-08-17T11:24:38.898Z,25.98
2018-08-17T11:25:48.733Z,25.98
2018-08-17T11:26:58.026Z,25.95
2018-08-17T11:28:07.745Z,25.98
2018-08-17T11:29:17.292Z,26.02
2018-08-17T11:30:26.286Z,26.1
2018-08-17T11:31:36.106Z,26.01
2018-08-17T11:32:45.373Z,25.94
2018-08-17T11:33:55.058Z,26.02
2018-08-17T11:35:04.412Z,26.09
2018-08-17T11:36:13.710Z,26.02
2018-08-17T11:37:23.547Z,26.06
2018-08-17T11:38:32.653Z,25.97
2018-08-17T11:39:42.696Z,26.01
2018-08-17T11:40:52.184Z,26.01
2018-08-17T11:42:01.822Z,26.09
2018-08-17T11:43:11.098Z,25.97
2018-08-17T11:44:20.926Z,26.05
2018-08-17T11:45:30.430Z,26.05
2018-08-17T11:46:39.459Z,25.95
2018-08-17T11:47:48.985Z,26.06
2018-08-17T11:48:58.262Z,25.98
2018-08-17T11:50:08.056Z,25.99
2018-08-17T11:51:17.616Z,26.02
2018-08-17T11:52:26.932Z,25.99
2018-08-17T11:53:36.651Z,25.99
2018-08-17T11:54:46.944Z,25.98
2018-08-17T11:55:56.607Z,26.07
2018-08-17T11:57:06.108Z,25.99
2018-08-17T11:58:15.653Z,25.98
2018-08-17T11:59:24.388Z,26.09
2018-08-17T12:00:33.156Z,25.98
2018-08-17T12:01:42.436Z,26.05
2018-08-17T12:02:52.366Z,26.09
2018-08-17T12:04:02.200Z,26.12
2018-08-17T12:05:11.543Z,25.99
2018-08-17T12:06:21.084Z,26.05
2018-08-17T12:07:30.411Z,26.02
2018-08-17T12:08:39.466Z,25.99
2018-08-17T12:09:49.443Z,25.99
2018-08-17T12:10:59.212Z,26.05
2018-08-17T12:12:08.810Z,25.98
2018-08-17T12:13:18.055Z,26.12
2018-08-17T12:14:27.662Z,26.12
2018-08-17T12:15:36.913Z,26.01
2018-08-17T12:16:45.911Z,26.02
2018-08-17T12:17:55.438Z,25.98
2018-08-17T12:19:04.993Z,26.06
2018-08-17T12:20:15.101Z,26.07
2018-08-17T12:21:24.447Z,25.98
2018-08-17T12:22:34.002Z,26.12
2018-08-17T12:23:43.744Z,25.98
2018-08-17T12:24:53.309Z,25.98
2018-08-17T12:26:02.861Z,25.95
2018-08-17T12:27:12.401Z,26.01
2018-08-17T12:28:22.210Z,26.12
2018-08-17T12:29:31.957Z,26.15
2018-08-17T12:30:40.900Z,26.09
2018-08-17T12:31:50.224Z,25.99
2018-08-17T12:32:59.758Z,26.1
2018-08-17T12:34:09.332Z,25.99
2018-08-17T12:35:18.628Z,26.1
2018-08-17T12:36:28.379Z,25.98
2018-08-17T12:37:37.368Z,26.05
2018-08-17T12:38:46.618Z,26.13
2018-08-17T12:39:55.350Z,26.01
2018-08-17T12:41:04.933Z,26.12
2018-08-17T12:42:14.134Z,26.09
2018-08-17T12:43:23.706Z,26.07
2018-08-17T12:44:32.983Z,26.12
2018-08-17T12:45:42.783Z,25.99
2018-08-17T12:46:52.527Z,26.02
2018-08-17T12:48:02.060Z,26.06
2018-08-17T12:49:11.598Z,26.01
2018-08-17T12:50:20.668Z,26.13
2018-08-17T12:51:29.887Z,26.15
2018-08-17T12:52:38.668Z,26.05
2018-08-17T12:53:47.673Z,25.97
2018-08-17T12:54:56.713Z,26.12
2018-08-17T12:56:05.804Z,26.1
2018-08-17T12:57:15.047Z,26.12
2018-08-17T12:58:24.519Z,26.06
2018-08-17T12:59:33.790Z,26.06
2018-08-17T13:00:43.087Z,26.07
2018-08-17T13:01:52.843Z,26.13
2018-08-17T13:03:02.157Z,26.15
2018-08-17T13:04:11.651Z,26.15
2018-08-17T13:05:20.919Z,26.1
2018-08-17T13:06:30.153Z,26.06
2018-08-17T13:07:39.655Z,26.1
2018-08-17T13:08:49.234Z,26.12
2018-08-17T13:09:58.213Z,26.13
2018-08-17T13:11:07.863Z,25.99
2018-08-17T13:12:17.427Z,26.15
2018-08-17T13:13:26.963Z,26.09
2018-08-17T13:14:36.873Z,26.09
2018-08-17T13:15:46.107Z,26.12
2018-08-17T13:16:55.140Z,26.1
2018-08-17T13:18:05.057Z,26.1
2018-08-17T13:19:14.539Z,26.1
2018-08-17T13:20:24.310Z,26.13
2018-08-17T13:21:33.252Z,26.06
2018-08-17T13:22:42.857Z,26.15
2018-08-17T13:23:52.635Z,26.1
2018-08-17T13:25:02.189Z,26.09
2018-08-17T13:26:11.148Z,26.15
2018-08-17T13:27:20.409Z,26.13
2018-08-17T13:28:29.945Z,26.1
2018-08-17T13:29:38.888Z,26.13
2018-08-17T13:30:48.700Z,26.1
2018-08-17T13:31:58.175Z,26.12
2018-08-17T13:33:07.958Z,26.07
2018-08-17T13:34:17.233Z,26.07
2018-08-17T13:35:26.572Z,26.12
2018-08-17T13:36:35.625Z,26.01
2018-08-17T13:37:44.861Z,26.1
2018-08-17T13:38:54.447Z,26.1
2018-08-17T13:40:04.337Z,26.06
2018-08-17T13:41:13.912Z,26.1
2018-08-17T13:42:23.933Z,26.12
2018-08-17T13:43:33.735Z,26.12
2018-08-17T13:44:42.960Z,26.13
2018-08-17T13:45:52.229Z,26.12
2018-08-17T13:47:01.773Z,26.17
2018-08-17T13:48:10.786Z,26.13
2018-08-17T13:49:20.318Z,26.21
2018-08-17T13:50:29.615Z,26.09
2018-08-17T13:51:39.177Z,26.2
2018-08-17T13:52:48.746Z,26.17
2018-08-17T13:53:58.335Z,26.2
2018-08-17T13:55:07.865Z,26.2
2018-08-17T13:56:17.393Z,26.2
2018-08-17T13:57:27.203Z,26.12
2018-08-17T13:58:36.462Z,26.18
2018-08-17T13:59:45.465Z,26.09
2018-08-17T14:00:54.912Z,26.18
2018-08-17T14:02:04.249Z,26.32
2018-08-17T14:03:13.808Z,26.23
2018-08-17T14:04:23.148Z,26.09
2018-08-17T14:05:32.335Z,26.18
2018-08-17T14:06:42.198Z,26.25
2018-08-17T14:07:51.408Z,26.17
2018-08-17T14:09:00.639Z,26.21
2018-08-17T14:10:10.007Z,26.28
2018-08-17T14:11:20.087Z,26.23
2018-08-17T14:12:29.907Z,26.2
2018-08-17T14:13:39.376Z,26.21
2018-08-17T14:14:49.132Z,26.21
2018-08-17T14:15:57.907Z,26.28
2018-08-17T14:17:07.816Z,26.26
2018-08-17T14:18:16.934Z,26.21
2018-08-17T14:19:27.125Z,26.26
2018-08-17T14:20:36.598Z,26.29
2018-08-17T14:21:45.828Z,26.28
2018-08-17T14:22:54.812Z,26.25
2018-08-17T14:24:03.554Z,26.26
2018-08-17T14:25:12.241Z,26.23
2018-08-17T14:26:20.951Z,26.29
2018-08-17T14:27:30.442Z,26.29
2018-08-17T14:28:39.783Z,26.23
2018-08-17T14:29:49.646Z,26.26
2018-08-17T14:30:58.605Z,26.25
2018-08-17T14:32:08.659Z,26.26
2018-08-17T14:33:18.014Z,26.26
2018-08-17T14:34:28.100Z,26.21
2018-08-17T14:35:36.952Z,26.33
2018-08-17T14:36:45.907Z,26.26
2018-08-17T14:37:55.907Z,26.28
2018-08-17T14:39:05.057Z,26.29
2018-08-17T14:40:14.651Z,26.26
2018-08-17T14:41:24.296Z,26.23
2018-08-17T14:42:33.569Z,26.29
2018-08-17T14:43:42.825Z,26.25
2018-08-17T14:44:52.089Z,26.3
2018-08-17T14:46:01.356Z,26.26
2018-08-17T14:47:10.748Z,26.26
2018-08-17T14:48:20.238Z,26.21
2018-08-17T14:49:29.503Z,26.26
2018-08-17T14:50:38.525Z,26.23
2018-08-17T14:51:48.151Z,26.26
2018-08-17T14:52:57.880Z,26.33
2018-08-17T14:54:07.685Z,26.28
2018-08-17T14:55:16.657Z,26.28
2018-08-17T14:56:26.466Z,26.29
2018-08-17T14:57:35.449Z,26.3